Terminal Aerodrome Forecast
Issued by NWS

Home | Current Version | Previous Version | Text Only | Print | Product List | Glossary On
Versions: 1 2 3 4 5 6 7 8 9 10 11 12 13 14 15 16 17 18 19 20 21 22 23
000
FTUS41 KALY 281812 AAA
TAFPSF
TAF AMD
KPSF 281812Z 2818/2918 22012KT P6SM FEW100 SCT150
     FM282300 20007KT P6SM VCSH SCT050 BKN150
     FM290800 24003KT P6SM BKN050 BKN250
     FM291200 28006KT P6SM SCT015 SCT250
     FM291600 31012G19KT P6SM SKC=

USA.gov is the U.S. government's official web portal to all federal, state and local government web resources and services.